Time;durP1;ratioP1;P1;durP2;ratioP2;P2;SDS_P1;SDS_P2;PMS_P1;PMS_P2;Temp;Humidity;BMP_temperature;BMP_pressure;BME280_temperature;BME280_humidity;BME280_pressure;Samples;Min_cycle;Max_cycle;Signal;HPM_P1;HPM_P2
2022/05/24 04:02:21;;;;;;;6.63;6.23;;;15.90;99.90;;;;;;5075095;23;20504;-66
2022/05/24 04:04:48;;;;;;;6.07;5.73;;;15.90;99.90;;;;;;4965517;28;20460;-67
2022/05/24 04:07:14;;;;;;;6.23;5.83;;;15.90;99.90;;;;;;4957601;28;20456;-67
2022/05/24 04:09:41;;;;;;;4.97;4.77;;;15.90;99.90;;;;;;4969103;28;20920;-67
2022/05/24 04:12:08;;;;;;;6.60;5.77;;;15.90;99.90;;;;;;4926298;28;20891;-67
2022/05/24 04:14:35;;;;;;;6.10;5.70;;;15.90;99.90;;;;;;4973256;23;20571;-70
2022/05/24 04:17:02;;;;;;;6.40;5.90;;;15.90;99.90;;;;;;4952499;28;20539;-70
2022/05/24 04:19:30;;;;;;;5.90;5.60;;;15.90;99.90;;;;;;4952656;28;21004;-71
2022/05/24 04:21:57;;;;;;;4.83;4.63;;;15.80;99.90;;;;;;4956232;28;20542;-70
2022/05/24 04:24:23;;;;;;;5.27;4.93;;;15.90;99.90;;;;;;4965403;28;20487;-71
2022/05/24 04:26:50;;;;;;;4.70;4.50;;;15.90;99.90;;;;;;4963754;28;20540;-70
2022/05/24 04:29:17;;;;;;;5.07;4.77;;;15.80;99.90;;;;;;4964906;28;20480;-71
2022/05/24 04:31:43;;;;;;;4.40;4.10;;;15.80;99.90;;;;;;4953641;28;20470;-71
2022/05/24 04:34:11;;;;;;;4.57;4.33;;;15.80;99.90;;;;;;4940041;28;20549;-70
2022/05/24 04:36:39;;;;;;;5.33;4.93;;;15.80;99.90;;;;;;4960242;28;20837;-71
2022/05/24 04:39:05;;;;;;;5.07;4.80;;;15.90;99.90;;;;;;4957979;28;20522;-71
2022/05/24 04:44:16;;;;;;;5.00;4.70;;;15.80;99.90;;;;;;4964837;28;20483;-70
2022/05/24 04:49:28;;;;;;;5.07;4.87;;;15.90;99.90;;;;;;4958670;28;20456;-71
2022/05/24 04:51:56;;;;;;;5.93;5.50;;;15.90;99.90;;;;;;4953474;28;20488;-70
2022/05/24 04:54:23;;;;;;;6.00;5.50;;;15.90;99.90;;;;;;4958896;28;20909;-71
2022/05/24 04:56:49;;;;;;;5.70;5.30;;;15.90;99.90;;;;;;4947302;28;20493;-70
2022/05/24 04:59:16;;;;;;;7.60;6.43;;;15.90;99.90;;;;;;4950327;28;20526;-70
2022/05/24 05:01:43;;;;;;;6.23;5.60;;;16.00;99.90;;;;;;4953476;28;20985;-70
2022/05/24 05:04:10;;;;;;;5.43;5.03;;;15.90;99.90;;;;;;4938125;28;20478;-70
2022/05/24 05:06:37;;;;;;;6.20;5.80;;;15.90;99.90;;;;;;4936165;28;20469;-71
2022/05/24 05:09:05;;;;;;;5.90;5.50;;;15.90;99.90;;;;;;4940076;28;20465;-70
2022/05/24 05:11:31;;;;;;;6.13;5.73;;;15.90;99.90;;;;;;4953534;28;21140;-70
2022/05/24 05:13:58;;;;;;;6.37;5.97;;;15.90;99.90;;;;;;4964166;28;20804;-71
2022/05/24 05:16:25;;;;;;;7.23;6.20;;;15.90;99.90;;;;;;4962740;28;20989;-70
2022/05/24 05:18:52;;;;;;;7.00;6.40;;;15.90;99.90;;;;;;4963724;28;20459;-70
2022/05/24 05:21:18;;;;;;;6.40;5.93;;;15.90;99.90;;;;;;4962755;28;20464;-70
2022/05/24 05:23:45;;;;;;;7.23;6.77;;;15.90;99.90;;;;;;4960623;28;20456;-70
2022/05/24 05:26:14;;;;;;;6.93;6.43;;;15.90;99.90;;;;;;4947990;28;20465;-70
2022/05/24 05:28:41;;;;;;;7.67;6.97;;;15.90;99.90;;;;;;4961393;28;20901;-71
2022/05/24 05:31:16;;;;;;;7.00;6.60;;;16.00;99.90;;;;;;4953413;28;20478;-71
2022/05/24 05:33:44;;;;;;;6.73;6.33;;;16.00;99.90;;;;;;4951046;28;20504;-71
2022/05/24 05:36:11;;;;;;;7.37;6.87;;;16.10;99.90;;;;;;4953846;28;21072;-71
2022/05/24 05:38:44;;;;;;;6.70;6.30;;;16.20;99.90;;;;;;4963084;28;20519;-71
2022/05/24 05:41:11;;;;;;;7.07;6.47;;;16.20;99.90;;;;;;4950989;28;20464;-71
2022/05/24 05:43:39;;;;;;;6.47;6.07;;;16.30;99.90;;;;;;4963407;28;20468;-71
2022/05/24 05:46:06;;;;;;;6.80;6.30;;;16.40;99.90;;;;;;4951152;28;21013;-71
2022/05/24 05:48:34;;;;;;;5.27;5.07;;;16.70;99.90;;;;;;4958058;28;20461;-71
2022/05/24 05:51:01;;;;;;;6.17;5.80;;;16.90;99.90;;;;;;4950208;28;20468;-71
2022/05/24 05:53:28;;;;;;;5.83;5.23;;;17.30;99.90;;;;;;4962428;28;20883;-71
2022/05/24 05:55:55;;;;;;;4.40;4.20;;;17.80;99.90;;;;;;4939285;28;20544;-71
2022/05/24 05:58:22;;;;;;;4.10;3.90;;;18.40;99.90;;;;;;4960069;28;20551;-71
2022/05/24 06:00:50;;;;;;;4.67;4.50;;;19.00;99.90;;;;;;4947770;28;20465;-71
2022/05/24 06:03:18;;;;;;;5.00;4.80;;;19.20;99.90;;;;;;4954297;28;20465;-71
2022/05/24 06:05:46;;;;;;;4.40;4.20;;;19.20;99.90;;;;;;4954574;28;20484;-71
2022/05/24 06:08:13;;;;;;;4.70;4.50;;;18.80;99.90;;;;;;4960461;28;20460;-71
2022/05/24 06:10:40;;;;;;;4.80;4.47;;;18.40;99.90;;;;;;4963876;28;20575;-72
2022/05/24 06:13:07;;;;;;;4.43;4.23;;;18.20;99.90;;;;;;4975744;28;20522;-72
2022/05/24 06:15:34;;;;;;;5.17;4.57;;;18.00;99.90;;;;;;4971323;28;20496;-71
2022/05/24 06:18:03;;;;;;;4.60;4.30;;;17.90;99.90;;;;;;4962235;28;20478;-71
2022/05/24 06:20:32;;;;;;;4.50;4.23;;;18.00;99.90;;;;;;4966341;28;20463;-71
2022/05/24 06:22:59;;;;;;;4.57;4.37;;;18.20;99.90;;;;;;4948236;28;20466;-71
2022/05/24 06:25:28;;;;;;;3.63;3.53;;;18.20;99.90;;;;;;4947204;28;20497;-71
2022/05/24 06:27:55;;;;;;;4.57;4.37;;;18.10;99.90;;;;;;4960786;28;20496;-71
2022/05/24 06:30:24;;;;;;;4.10;3.87;;;18.00;99.90;;;;;;4963488;28;20468;-71
2022/05/24 06:32:51;;;;;;;4.40;4.20;;;17.90;99.90;;;;;;4977925;28;20473;-71
2022/05/24 06:35:20;;;;;;;4.20;4.00;;;17.80;99.90;;;;;;4977531;28;20484;-71
2022/05/24 06:37:48;;;;;;;4.00;3.80;;;17.70;99.90;;;;;;4984352;28;20500;-71
2022/05/24 06:40:18;;;;;;;4.40;4.00;;;17.70;99.90;;;;;;4968501;28;20458;-71
2022/05/24 06:42:44;;;;;;;4.93;4.50;;;17.70;99.90;;;;;;4962455;28;20483;-71
2022/05/24 06:45:11;;;;;;;4.73;4.40;;;17.70;99.90;;;;;;4951475;28;20905;-71
2022/05/24 06:47:40;;;;;;;4.20;4.10;;;17.70;99.90;;;;;;4948350;28;20527;-71
2022/05/24 06:50:08;;;;;;;4.10;4.00;;;17.80;99.90;;;;;;4963675;28;20495;-70
2022/05/24 06:52:36;;;;;;;3.63;3.43;;;18.00;99.90;;;;;;4953396;28;20520;-70
2022/05/24 06:55:04;;;;;;;4.00;3.80;;;18.30;99.90;;;;;;4955018;28;20489;-70
2022/05/24 06:57:30;;;;;;;3.80;3.70;;;18.60;99.90;;;;;;4948762;28;20644;-70
2022/05/24 07:02:41;;;;;;;4.33;4.07;;;19.10;99.90;;;;;;4963416;28;20454;-70
2022/05/24 07:05:13;;;;;;;3.73;3.47;;;19.30;99.90;;;;;;4961246;28;20492;-71
2022/05/24 07:07:41;;;;;;;4.57;4.33;;;19.40;99.90;;;;;;4955280;28;20501;-71
2022/05/24 07:10:12;;;;;;;3.67;3.47;;;19.40;99.90;;;;;;4952141;28;20468;-71
2022/05/24 07:12:39;;;;;;;3.87;3.67;;;19.10;99.90;;;;;;4964148;28;20465;-71
2022/05/24 07:15:06;;;;;;;3.87;3.77;;;19.00;99.90;;;;;;4957758;28;20548;-71
2022/05/24 07:17:33;;;;;;;4.37;4.17;;;18.90;99.90;;;;;;4955506;28;20488;-71
2022/05/24 07:20:00;;;;;;;3.83;3.63;;;19.00;99.90;;;;;;4949825;28;20476;-71
2022/05/24 07:22:26;;;;;;;4.30;3.93;;;19.00;99.90;;;;;;4951966;28;20468;-71
2022/05/24 07:24:54;;;;;;;4.17;4.03;;;19.20;99.90;;;;;;4951921;28;20911;-71
2022/05/24 07:27:22;;;;;;;4.10;3.87;;;19.90;99.90;;;;;;4959648;28;20528;-71
2022/05/24 07:29:49;;;;;;;3.50;3.40;;;20.70;99.90;;;;;;4963574;28;20558;-71
2022/05/24 07:32:16;;;;;;;4.20;4.10;;;21.00;99.90;;;;;;4953136;28;20540;-71
2022/05/24 07:34:42;;;;;;;4.30;4.10;;;21.00;99.90;;;;;;4950465;28;20497;-71
2022/05/24 07:37:15;;;;;;;4.60;4.30;;;20.80;99.90;;;;;;4957833;28;20484;-71
2022/05/24 07:39:42;;;;;;;5.47;5.10;;;20.60;99.90;;;;;;4959319;28;20530;-71
2022/05/24 07:47:41;;;;;;;5.17;4.70;;;19.90;99.90;;;;;;4939874;29;20508;-71
2022/05/24 07:50:09;;;;;;;5.20;4.90;;;19.80;99.90;;;;;;4933515;29;20461;-71
2022/05/24 07:52:35;;;;;;;5.93;5.43;;;19.60;99.90;;;;;;4942558;28;20958;-71
2022/05/24 07:55:03;;;;;;;4.83;4.53;;;19.40;99.90;;;;;;4956018;28;20489;-73
2022/05/24 07:57:31;;;;;;;5.43;5.10;;;19.50;99.90;;;;;;4958199;28;20638;-72
2022/05/24 07:59:58;;;;;;;5.37;5.07;;;19.50;99.90;;;;;;4959286;28;20472;-71
2022/05/24 08:02:24;;;;;;;5.23;4.93;;;19.50;99.90;;;;;;4963179;28;20510;-70
2022/05/24 08:04:54;;;;;;;5.20;5.00;;;19.40;99.90;;;;;;4957733;28;20487;-71
2022/05/24 08:07:20;;;;;;;5.10;4.80;;;19.50;99.90;;;;;;4943090;28;20973;-71
2022/05/24 08:09:47;;;;;;;5.50;5.10;;;19.80;99.90;;;;;;4950656;28;20474;-71
2022/05/24 08:12:14;;;;;;;4.77;4.50;;;20.00;99.90;;;;;;4948040;28;20521;-71
2022/05/24 08:14:42;;;;;;;5.40;5.10;;;19.90;99.90;;;;;;4960486;28;20499;-71
2022/05/24 08:17:09;;;;;;;5.37;5.07;;;19.90;99.90;;;;;;4960008;28;20941;-70
2022/05/24 08:19:36;;;;;;;5.83;5.43;;;20.00;99.90;;;;;;4962433;28;20480;-70
2022/05/24 08:22:02;;;;;;;5.33;5.03;;;20.50;99.90;;;;;;4961639;28;20481;-70
2022/05/24 08:24:29;;;;;;;4.60;4.40;;;20.80;99.90;;;;;;4961678;28;20546;-70
2022/05/24 08:26:56;;;;;;;5.73;5.43;;;21.10;99.90;;;;;;4957232;28;20464;-71
2022/05/24 08:29:23;;;;;;;5.50;5.10;;;21.30;99.90;;;;;;4963988;28;20516;-72
2022/05/24 08:31:51;;;;;;;6.00;5.60;;;21.20;99.90;;;;;;4959129;28;20534;-70
2022/05/24 08:34:18;;;;;;;5.70;5.47;;;21.20;99.90;;;;;;4961532;28;20491;-71
2022/05/24 08:36:44;;;;;;;5.93;5.43;;;21.20;99.90;;;;;;4945311;28;20504;-71
2022/05/24 08:39:11;;;;;;;5.27;5.00;;;21.20;99.90;;;;;;4961167;28;20899;-71
2022/05/24 08:41:56;;;;;;;5.30;5.10;;;21.30;99.90;;;;;;4953170;28;20862;-70
2022/05/24 08:50:06;;;;;;;6.20;5.70;;;21.30;99.90;;;;;;4966401;28;20574;-70
2022/05/24 08:52:37;;;;;;;6.07;5.77;;;21.20;99.90;;;;;;4959895;28;20526;-70
2022/05/24 08:55:06;;;;;;;6.10;5.70;;;21.10;99.90;;;;;;4958068;28;20523;-70
2022/05/24 08:57:41;;;;;;;6.10;5.70;;;21.10;99.90;;;;;;4956244;28;20522;-70
2022/05/24 09:00:10;;;;;;;5.03;4.73;;;21.20;99.90;;;;;;4960341;28;20474;-70
2022/05/24 09:02:44;;;;;;;5.53;5.13;;;21.50;99.90;;;;;;4962601;28;20487;-71
2022/05/24 09:05:18;;;;;;;5.70;5.37;;;21.70;99.90;;;;;;4949871;28;20511;-70
2022/05/24 09:07:54;;;;;;;5.50;5.20;;;21.70;99.90;;;;;;4949614;28;20473;-70
2022/05/24 09:10:23;;;;;;;5.50;5.20;;;21.70;99.90;;;;;;4961245;28;20949;-70
2022/05/24 09:13:05;;;;;;;5.07;4.83;;;21.50;99.90;;;;;;4958033;28;20982;-70
2022/05/24 09:15:42;;;;;;;5.30;4.90;;;21.50;99.90;;;;;;4962147;28;20855;-70
2022/05/24 09:18:20;;;;;;;3.87;3.77;;;21.70;99.90;;;;;;4950209;28;20571;-70
2022/05/24 09:20:48;;;;;;;4.67;4.47;;;21.90;99.90;;;;;;4952723;28;20531;-70
2022/05/24 09:23:21;;;;;;;4.00;3.90;;;22.10;99.90;;;;;;4949320;28;20547;-70
2022/05/24 09:25:59;;;;;;;4.70;4.60;;;22.20;99.90;;;;;;4953849;28;20991;-70
2022/05/24 09:28:45;;;;;;;4.73;4.53;;;22.00;99.90;;;;;;4954091;28;20535;-70
2022/05/24 09:31:18;;;;;;;4.27;4.07;;;21.80;99.90;;;;;;4960518;28;20464;-70
2022/05/24 09:33:46;;;;;;;4.53;4.30;;;21.30;99.90;;;;;;4957542;28;20553;-70
2022/05/24 09:36:33;;;;;;;4.50;4.30;;;21.00;99.90;;;;;;4949601;28;20544;-70
2022/05/24 09:39:00;;;;;;;4.63;4.43;;;20.70;99.90;;;;;;4963981;28;20972;-70
2022/05/24 09:41:28;;;;;;;4.50;4.30;;;20.50;99.90;;;;;;4940114;28;20477;-70
2022/05/24 09:44:01;;;;;;;4.40;4.20;;;20.30;99.90;;;;;;4943991;28;20468;-70
2022/05/24 09:46:29;;;;;;;5.30;5.00;;;20.10;99.90;;;;;;4949241;28;20471;-70
2022/05/24 09:49:01;;;;;;;4.73;4.40;;;19.90;99.90;;;;;;4952428;28;20480;-70
2022/05/24 09:51:34;;;;;;;5.87;5.47;;;19.60;99.90;;;;;;4952595;28;20564;-70
2022/05/24 09:54:06;;;;;;;5.80;5.50;;;19.40;99.90;;;;;;4954140;28;20519;-70
2022/05/24 09:56:33;;;;;;;5.87;5.57;;;19.30;99.90;;;;;;4939138;28;20461;-70
2022/05/24 09:59:03;;;;;;;6.43;6.10;;;19.20;99.90;;;;;;4951355;28;20469;-70
2022/05/24 10:01:36;;;;;;;5.80;5.47;;;19.10;99.90;;;;;;4950973;28;20555;-71
2022/05/24 10:04:23;;;;;;;6.40;6.00;;;19.00;99.90;;;;;;4944563;28;20852;-70
2022/05/24 10:07:00;;;;;;;8.33;6.73;;;19.00;99.90;;;;;;4960276;28;20560;-71
2022/05/24 10:09:53;;;;;;;6.37;6.07;;;19.10;99.90;;;;;;4953780;28;20472;-71
2022/05/24 10:12:32;;;;;;;7.33;6.60;;;19.20;99.90;;;;;;4963673;28;20830;-71
2022/05/24 10:15:07;;;;;;;8.00;7.20;;;19.30;99.90;;;;;;4956869;23;20560;-69
2022/05/24 10:17:45;;;;;;;7.03;6.53;;;19.30;99.90;;;;;;4947360;29;20565;-67
2022/05/24 10:20:21;;;;;;;6.70;5.97;;;19.10;99.90;;;;;;4945138;29;20473;-68
2022/05/24 10:22:58;;;;;;;7.23;6.63;;;18.80;99.90;;;;;;4937677;29;20471;-67
2022/05/24 10:25:29;;;;;;;7.93;7.20;;;18.50;99.90;;;;;;4931634;29;20578;-67
2022/05/24 10:28:19;;;;;;;6.67;6.27;;;18.10;99.90;;;;;;4916335;29;20904;-67
2022/05/24 10:30:56;;;;;;;8.10;7.30;;;17.80;99.90;;;;;;4912246;29;20795;-66
2022/05/24 10:39:24;;;;;;;8.27;7.63;;;17.40;99.90;;;;;;4922506;29;20478;-66
2022/05/24 10:41:58;;;;;;;8.13;7.43;;;17.20;99.90;;;;;;4907508;29;20474;-66
2022/05/24 10:44:35;;;;;;;8.40;7.67;;;17.10;99.90;;;;;;4910681;29;20477;-67
2022/05/24 10:47:06;;;;;;;8.77;8.17;;;17.10;99.90;;;;;;4914562;29;20877;-66
2022/05/24 10:49:40;;;;;;;9.30;8.50;;;17.10;99.90;;;;;;4910846;29;20562;-67
2022/05/24 10:52:13;;;;;;;12.20;10.30;;;17.10;99.90;;;;;;4906392;29;20472;-67
2022/05/24 10:54:44;;;;;;;10.27;9.10;;;17.10;99.90;;;;;;4911243;29;20578;-67
2022/05/24 10:57:16;;;;;;;10.10;9.20;;;17.00;99.90;;;;;;4911609;29;20515;-66
2022/05/24 10:59:58;;;;;;;9.70;8.90;;;17.00;99.90;;;;;;4913212;29;20471;-67
2022/05/24 11:02:33;;;;;;;8.20;7.57;;;16.90;99.90;;;;;;4905782;29;20477;-67
2022/05/24 11:05:06;;;;;;;8.10;7.30;;;16.90;99.90;;;;;;4915570;29;20505;-69
2022/05/24 11:07:37;;;;;;;7.30;6.80;;;16.90;99.90;;;;;;4916770;29;20462;-68
2022/05/24 11:10:13;;;;;;;8.10;7.50;;;16.90;99.90;;;;;;4914882;29;20475;-67
2022/05/24 11:12:45;;;;;;;7.50;7.00;;;16.90;99.90;;;;;;4913593;29;20467;-67
2022/05/24 11:15:19;;;;;;;9.40;8.03;;;16.90;99.90;;;;;;4910630;29;20498;-67
2022/05/24 11:17:47;;;;;;;8.60;7.90;;;16.80;99.90;;;;;;4923614;29;20511;-67
2022/05/24 11:20:15;;;;;;;8.60;7.80;;;16.70;99.90;;;;;;4926494;29;20569;-68
2022/05/24 11:22:48;;;;;;;8.83;8.23;;;16.60;99.90;;;;;;4916138;29;20976;-68
2022/05/24 11:25:22;;;;;;;9.13;8.30;;;16.50;99.90;;;;;;4916236;29;20974;-66
2022/05/24 11:27:51;;;;;;;8.13;7.60;;;16.40;99.90;;;;;;4908905;29;20470;-67
2022/05/24 11:30:34;;;;;;;7.90;7.40;;;16.40;99.90;;;;;;4915384;29;20533;-66
2022/05/24 11:33:09;;;;;;;10.13;9.43;;;16.50;99.90;;;;;;4915423;29;20947;-68
2022/05/24 11:35:39;;;;;;;9.20;8.60;;;16.60;99.90;;;;;;4912027;29;20486;-68
2022/05/24 11:38:16;;;;;;;10.57;9.37;;;16.70;99.90;;;;;;4915882;29;21022;-67
2022/05/24 11:41:01;;;;;;;8.40;7.77;;;16.90;99.90;;;;;;4915463;29;20553;-67
2022/05/24 11:44:04;;;;;;;9.83;9.00;;;17.00;99.90;;;;;;4916058;29;20450;-67
2022/05/24 11:46:46;;;;;;;10.03;9.20;;;17.10;99.90;;;;;;4915210;29;20490;-68
2022/05/24 11:49:28;;;;;;;9.47;8.53;;;17.10;99.90;;;;;;4914883;29;20818;-67
2022/05/24 11:51:57;;;;;;;9.37;8.50;;;17.20;99.90;;;;;;4911156;29;20469;-67
2022/05/24 11:54:55;;;;;;;9.20;8.30;;;17.40;99.90;;;;;;4915326;29;20466;-67
2022/05/24 11:57:28;;;;;;;7.70;7.10;;;17.60;99.90;;;;;;4915120;29;20466;-67
2022/05/24 11:59:55;;;;;;;7.80;7.10;;;17.70;99.90;;;;;;4914089;29;20951;-67
2022/05/24 12:08:30;;;;;;;4.93;4.63;;;18.30;99.90;;;;;;4902502;29;20537;-67
2022/05/24 12:11:18;;;;;;;4.30;3.97;;;18.40;99.90;;;;;;4916168;29;20843;-67
2022/05/24 12:13:57;;;;;;;3.17;3.00;;;18.60;99.90;;;;;;4912535;29;20494;-67
2022/05/24 12:16:40;;;;;;;3.80;3.60;;;18.40;99.90;;;;;;4903957;29;20497;-68
2022/05/24 12:19:09;;;;;;;4.47;4.17;;;18.40;99.90;;;;;;4913352;29;20478;-68
2022/05/24 12:21:42;;;;;;;4.37;4.13;;;18.40;99.90;;;;;;4916611;29;20470;-68
2022/05/24 12:24:33;;;;;;;4.70;4.30;;;18.40;99.90;;;;;;4911073;29;20531;-68
2022/05/24 12:27:42;;;;;;;4.60;4.27;;;18.40;99.90;;;;;;4921320;29;21021;-67
2022/05/24 12:30:45;;;;;;;4.87;4.50;;;18.40;99.90;;;;;;4893554;29;20478;-68
2022/05/24 12:33:23;;;;;;;4.20;4.00;;;18.50;99.90;;;;;;4911057;29;20474;-68
2022/05/24 12:35:53;;;;;;;4.20;3.90;;;18.60;99.90;;;;;;4920967;29;20544;-68
2022/05/24 12:38:25;;;;;;;3.87;3.67;;;18.70;99.90;;;;;;4915339;29;21078;-68
2022/05/24 12:41:07;;;;;;;3.63;3.53;;;18.80;99.90;;;;;;4925313;29;20449;-68
2022/05/24 12:43:35;;;;;;;3.27;3.17;;;18.90;99.90;;;;;;4925524;29;20530;-68
2022/05/24 12:46:03;;;;;;;3.33;3.20;;;18.90;99.90;;;;;;4923358;29;21005;-68
2022/05/24 12:48:36;;;;;;;3.10;3.00;;;19.30;99.90;;;;;;4924750;29;20466;-68
2022/05/24 12:51:07;;;;;;;3.33;3.20;;;19.50;99.90;;;;;;4913989;29;20467;-67
2022/05/24 12:53:35;;;;;;;3.67;3.57;;;19.60;99.90;;;;;;4915225;29;20878;-68
2022/05/24 12:56:05;;;;;;;3.50;3.30;;;19.60;99.90;;;;;;4915031;29;20486;-68
2022/05/24 12:58:37;;;;;;;2.80;2.73;;;19.70;99.90;;;;;;4914809;29;20490;-67
2022/05/24 13:01:09;;;;;;;3.90;3.43;;;19.70;99.90;;;;;;4913529;29;20463;-67
2022/05/24 13:03:36;;;;;;;3.00;2.90;;;19.70;99.90;;;;;;4914307;29;20473;-67
2022/05/24 13:06:03;;;;;;;3.40;3.30;;;19.80;99.90;;;;;;4914684;29;20490;-67
2022/05/24 13:08:29;;;;;;;2.97;2.77;;;19.90;99.90;;;;;;4913943;29;20614;-67
2022/05/24 13:10:57;;;;;;;3.03;2.93;;;20.10;99.90;;;;;;4913741;29;20466;-68
2022/05/24 13:13:24;;;;;;;3.10;2.90;;;20.00;99.90;;;;;;4914503;29;20546;-68
2022/05/24 13:15:54;;;;;;;3.13;3.03;;;19.80;99.90;;;;;;4914033;29;20604;-68
2022/05/24 13:18:23;;;;;;;3.17;3.07;;;19.80;99.90;;;;;;4913378;29;20514;-68
2022/05/24 13:20:52;;;;;;;3.40;3.30;;;19.80;99.90;;;;;;4913775;29;20931;-67
2022/05/24 13:23:29;;;;;;;3.33;3.23;;;19.70;99.90;;;;;;4914262;29;20956;-68
2022/05/24 13:25:57;;;;;;;2.60;2.60;;;19.60;99.90;;;;;;4914611;29;20490;-68
2022/05/24 13:28:51;;;;;;;3.27;3.20;;;19.50;99.90;;;;;;4913715;29;20989;-68
2022/05/24 13:34:20;;;;;;;3.30;3.20;;;19.80;99.90;;;;;;4892732;29;21052;-68
2022/05/24 13:36:49;;;;;;;3.60;3.40;;;19.90;99.90;;;;;;4902181;29;20944;-67
2022/05/24 13:39:19;;;;;;;2.83;2.80;;;20.10;99.90;;;;;;4912079;29;20499;-68
2022/05/24 13:41:55;;;;;;;3.33;3.23;;;20.30;99.90;;;;;;4913634;29;20474;-68
2022/05/24 13:44:27;;;;;;;3.17;3.00;;;20.30;99.90;;;;;;4914718;29;20458;-68
2022/05/24 13:46:59;;;;;;;3.17;2.97;;;20.20;99.90;;;;;;4913317;29;20470;-68
2022/05/24 13:49:33;;;;;;;3.93;3.00;;;20.20;99.90;;;;;;4913781;29;20458;-68
2022/05/24 13:52:27;;;;;;;4.00;3.80;;;20.30;99.90;;;;;;4913822;29;20450;-68
2022/05/24 13:55:12;;;;;;;3.07;2.97;;;20.20;99.90;;;;;;4913729;29;20486;-69
2022/05/24 13:57:45;;;;;;;3.90;3.73;;;20.00;99.90;;;;;;4913596;29;20462;-69
2022/05/24 14:00:19;;;;;;;3.10;2.90;;;20.00;99.90;;;;;;4911560;29;20788;-69
2022/05/24 14:02:50;;;;;;;3.70;3.50;;;19.90;99.90;;;;;;4915973;29;20540;-69
2022/05/24 14:05:31;;;;;;;3.20;3.20;;;19.90;99.90;;;;;;4916880;29;20490;-68
2022/05/24 14:07:58;;;;;;;3.13;3.03;;;20.10;99.90;;;;;;4907847;29;20984;-69
2022/05/24 14:10:25;;;;;;;3.03;2.93;;;20.30;99.90;;;;;;4921871;29;20870;-69
2022/05/24 14:12:52;;;;;;;3.27;3.00;;;20.30;99.90;;;;;;4918477;29;20478;-69
2022/05/24 14:15:18;;;;;;;2.67;2.60;;;20.40;99.90;;;;;;4920107;29;20521;-69
2022/05/24 14:17:48;;;;;;;2.70;2.60;;;20.20;99.90;;;;;;4921810;29;20470;-67
2022/05/24 14:20:15;;;;;;;2.80;2.77;;;20.20;99.90;;;;;;4921286;29;20474;-67
2022/05/24 14:22:42;;;;;;;3.33;3.23;;;20.40;99.90;;;;;;4917996;29;20474;-68
2022/05/24 14:25:09;;;;;;;2.67;2.57;;;20.50;99.90;;;;;;4927088;29;20494;-67
2022/05/24 14:27:37;;;;;;;2.17;2.10;;;20.60;99.90;;;;;;4916147;29;20478;-67
2022/05/24 14:30:04;;;;;;;1.97;1.97;;;20.70;99.90;;;;;;4914738;29;20565;-67
2022/05/24 14:32:32;;;;;;;2.20;2.20;;;20.70;99.90;;;;;;4924569;29;20494;-67
2022/05/24 14:35:00;;;;;;;2.53;2.53;;;20.50;99.90;;;;;;4919469;29;20486;-69
2022/05/24 14:37:27;;;;;;;2.83;2.77;;;20.40;99.90;;;;;;4929596;29;20881;-68
2022/05/24 14:39:54;;;;;;;2.50;2.40;;;20.40;99.90;;;;;;4924916;29;20967;-69
2022/05/24 14:42:21;;;;;;;2.40;2.40;;;20.60;99.90;;;;;;4917144;29;20530;-68
2022/05/24 14:44:48;;;;;;;2.20;2.20;;;20.80;99.90;;;;;;4924393;29;21027;-68
2022/05/24 14:47:15;;;;;;;3.00;2.90;;;20.90;99.90;;;;;;4916289;29;20504;-69
2022/05/24 14:49:42;;;;;;;3.30;3.00;;;20.60;99.90;;;;;;4925398;29;20950;-69
2022/05/24 14:52:13;;;;;;;2.77;2.77;;;20.20;99.90;;;;;;4917289;29;20477;-68
2022/05/24 14:54:44;;;;;;;2.50;2.40;;;20.10;99.90;;;;;;4926869;29;20560;-68
2022/05/24 14:57:11;;;;;;;2.87;2.70;;;20.00;99.90;;;;;;4916584;29;20885;-70
2022/05/24 14:59:39;;;;;;;3.10;2.90;;;19.90;99.90;;;;;;4919705;29;20841;-69
2022/05/24 15:02:07;;;;;;;3.13;3.13;;;19.90;99.90;;;;;;4915997;29;20470;-69
2022/05/24 15:04:34;;;;;;;3.43;3.00;;;19.80;99.90;;;;;;4916421;29;20491;-69
2022/05/24 15:15:21;;;;;;;3.10;3.00;;;19.50;99.90;;;;;;4885323;29;20510;-69
2022/05/24 15:17:48;;;;;;;2.63;2.53;;;19.60;99.90;;;;;;4919255;29;20975;-69
2022/05/24 15:20:17;;;;;;;2.97;2.67;;;19.70;99.90;;;;;;4931106;29;20485;-69
2022/05/24 15:22:48;;;;;;;2.50;2.40;;;19.60;99.90;;;;;;4914868;29;20964;-69
2022/05/24 15:25:21;;;;;;;2.13;2.13;;;19.50;99.90;;;;;;4916381;29;20486;-69
2022/05/24 15:27:48;;;;;;;2.30;2.20;;;19.40;99.90;;;;;;4916098;29;20474;-69
2022/05/24 15:30:15;;;;;;;2.00;2.00;;;19.30;99.90;;;;;;4914830;29;20478;-69
2022/05/24 15:32:42;;;;;;;3.03;2.83;;;19.10;99.90;;;;;;4915887;29;20608;-69
2022/05/24 15:35:09;;;;;;;2.80;2.70;;;19.00;99.90;;;;;;4914913;29;20491;-69
2022/05/24 15:37:36;;;;;;;4.07;3.77;;;18.90;99.90;;;;;;4921681;29;20474;-70
2022/05/24 15:40:04;;;;;;;3.37;3.27;;;18.70;99.90;;;;;;4919394;29;20793;-70
2022/05/24 15:42:34;;;;;;;3.47;3.27;;;18.50;99.90;;;;;;4931800;29;20472;-70
2022/05/24 15:45:01;;;;;;;3.73;3.53;;;18.60;99.90;;;;;;4915472;29;21038;-69
2022/05/24 15:47:28;;;;;;;4.60;4.30;;;18.60;99.90;;;;;;4933276;29;20493;-70
2022/05/24 15:49:55;;;;;;;3.63;3.43;;;18.60;99.90;;;;;;4920517;29;20473;-70
2022/05/24 15:52:22;;;;;;;3.10;2.93;;;18.60;99.90;;;;;;4926772;29;20553;-70
2022/05/24 15:54:49;;;;;;;2.47;2.37;;;18.50;99.90;;;;;;4920766;29;20497;-70
2022/05/24 15:57:16;;;;;;;2.90;2.80;;;18.40;99.90;;;;;;4915894;29;20478;-70
2022/05/24 15:59:44;;;;;;;2.50;2.50;;;18.40;99.90;;;;;;4917626;29;20890;-70
2022/05/24 16:02:11;;;;;;;2.90;2.80;;;18.50;99.90;;;;;;4933471;29;20530;-71
2022/05/24 16:10:08;;;;;;;2.60;2.50;;;18.40;99.90;;;;;;4914252;29;20882;-70
2022/05/24 16:12:38;;;;;;;2.70;2.70;;;18.40;99.90;;;;;;4915624;29;20534;-70
2022/05/24 16:15:08;;;;;;;3.20;3.17;;;18.40;99.90;;;;;;4915056;29;20498;-69
2022/05/24 16:17:35;;;;;;;3.23;2.70;;;18.30;99.90;;;;;;4922929;29;20560;-69
2022/05/24 16:20:04;;;;;;;2.73;2.63;;;18.30;99.90;;;;;;4919637;29;20490;-70
2022/05/24 16:22:31;;;;;;;3.23;2.97;;;18.30;99.90;;;;;;4926712;29;20568;-69
2022/05/24 16:24:58;;;;;;;3.07;2.73;;;18.40;99.90;;;;;;4920835;29;20493;-69
2022/05/24 16:27:25;;;;;;;2.93;2.73;;;18.40;99.90;;;;;;4914042;29;20478;-70
2022/05/24 16:29:53;;;;;;;2.93;2.83;;;18.60;99.90;;;;;;4917027;29;20582;-70
2022/05/24 16:32:22;;;;;;;2.53;2.43;;;18.70;99.90;;;;;;4912124;29;20472;-70
2022/05/24 16:34:49;;;;;;;2.70;2.70;;;18.80;99.90;;;;;;4911061;29;20901;-70
2022/05/24 16:37:16;;;;;;;2.10;2.00;;;18.80;99.90;;;;;;4914257;29;20529;-69
2022/05/24 16:39:43;;;;;;;3.23;2.30;;;18.90;99.90;;;;;;4922431;29;20478;-70
2022/05/24 16:42:10;;;;;;;2.90;2.60;;;18.90;99.90;;;;;;4925101;29;20474;-70
2022/05/24 16:44:37;;;;;;;2.87;2.77;;;18.90;99.90;;;;;;4913913;29;20502;-69
2022/05/24 16:47:04;;;;;;;2.57;2.57;;;18.90;99.90;;;;;;4920347;29;20478;-70
2022/05/24 16:49:32;;;;;;;2.80;2.70;;;18.80;99.90;;;;;;4922566;29;20885;-70
2022/05/24 16:52:03;;;;;;;2.10;2.10;;;18.70;99.90;;;;;;4920220;29;20518;-69
2022/05/24 16:59:58;;;;;;;2.50;2.40;;;18.40;99.90;;;;;;4907873;29;20533;-69
2022/05/24 17:02:25;;;;;;;1.90;1.80;;;18.50;99.90;;;;;;4918691;29;20474;-68
2022/05/24 17:04:56;;;;;;;1.97;1.97;;;18.70;99.90;;;;;;4914771;29;20818;-69
2022/05/24 17:07:23;;;;;;;1.77;1.73;;;18.80;99.90;;;;;;4914009;29;20533;-69
2022/05/24 17:09:50;;;;;;;1.83;1.80;;;18.70;99.90;;;;;;4917123;29;20465;-69
2022/05/24 17:12:17;;;;;;;1.80;1.33;;;18.80;99.90;;;;;;4925645;29;20562;-69
2022/05/24 17:14:43;;;;;;;1.67;1.67;;;18.80;99.90;;;;;;4915404;29;20584;-69
2022/05/24 17:17:10;;;;;;;1.40;1.40;;;18.80;99.90;;;;;;4921942;29;20474;-69
2022/05/24 17:19:37;;;;;;;1.20;1.20;;;18.70;99.90;;;;;;4916315;29;20494;-69
2022/05/24 17:22:05;;;;;;;1.20;1.20;;;18.60;99.90;;;;;;4922241;29;20529;-69
2022/05/24 17:24:32;;;;;;;2.97;1.10;;;18.50;99.90;;;;;;4914631;29;20490;-69
2022/05/24 17:27:00;;;;;;;1.80;1.70;;;18.40;99.90;;;;;;4910898;29;20968;-69
2022/05/24 17:29:27;;;;;;;1.30;1.27;;;18.30;99.90;;;;;;4916907;29;20524;-68
2022/05/24 17:31:58;;;;;;;1.20;1.20;;;18.10;99.90;;;;;;4911023;29;20466;-68
2022/05/24 17:34:24;;;;;;;0.97;0.97;;;18.00;99.90;;;;;;4911114;29;20543;-69
2022/05/24 17:36:51;;;;;;;1.00;1.00;;;18.00;99.90;;;;;;4918167;29;20879;-69
2022/05/24 17:39:19;;;;;;;1.07;1.07;;;17.90;99.90;;;;;;4921172;29;20489;-70
2022/05/24 17:41:47;;;;;;;1.30;1.30;;;18.00;99.90;;;;;;4917797;29;20473;-69
2022/05/24 17:44:13;;;;;;;1.10;1.10;;;18.00;99.90;;;;;;4921866;29;20471;-69
2022/05/24 17:46:41;;;;;;;1.00;1.00;;;18.00;99.90;;;;;;4910488;29;20477;-69
2022/05/24 17:49:09;;;;;;;1.37;1.27;;;18.00;99.90;;;;;;4916761;29;20574;-69
2022/05/24 17:51:36;;;;;;;1.10;1.10;;;18.00;99.90;;;;;;4921679;29;20502;-69
2022/05/24 17:54:03;;;;;;;1.07;1.07;;;17.90;99.90;;;;;;4912609;29;20526;-69
2022/05/24 17:56:31;;;;;;;1.13;1.13;;;17.90;99.90;;;;;;4913032;29;20835;-69